createdAt,value
2022-12-18T00:00:38.297Z,77.15
2022-12-18T00:03:39.423Z,76.07
2022-12-18T00:06:31.444Z,71.35
2022-12-18T00:09:31.354Z,66.75
2022-12-18T00:12:39.156Z,66.03
2022-12-18T00:15:45.795Z,60.67
2022-12-18T00:18:57.483Z,64.43
2022-12-18T00:21:51.883Z,57.08
2022-12-18T00:24:48.513Z,60.22
2022-12-18T00:27:37.628Z,57.25
2022-12-18T00:30:32.074Z,48.28
2022-12-18T00:33:30.456Z,56.78
2022-12-18T00:36:26.709Z,54.50
2022-12-18T00:39:34.896Z,46.53
2022-12-18T00:42:42.633Z,51.38
2022-12-18T00:45:43.306Z,53.75
2022-12-18T00:48:34.980Z,50.40
2022-12-18T00:51:28.912Z,56.17
2022-12-18T00:54:18.575Z,55.78
2022-12-18T00:57:07.035Z,54.83
2022-12-18T00:59:57.490Z,51.67
2022-12-18T01:02:52.474Z,55.03
2022-12-18T01:05:43.649Z,50.85
2022-12-18T01:08:31.566Z,54.35
2022-12-18T01:11:21.877Z,48.38
2022-12-18T01:14:10.358Z,59.70
2022-12-18T01:17:00.637Z,51.88
2022-12-18T01:19:49.052Z,55.80
2022-12-18T01:22:38.035Z,62.15
2022-12-18T01:25:28.628Z,61.58
2022-12-18T01:28:24.227Z,58.53
2022-12-18T01:31:21.425Z,56.78
2022-12-18T01:34:11.412Z,59.80
2022-12-18T01:37:00.023Z,54.60
2022-12-18T01:39:48.471Z,49.65
2022-12-18T01:42:37.234Z,52.80
2022-12-18T01:45:33.705Z,50.55
2022-12-18T01:48:26.510Z,47.70
2022-12-18T01:51:17.754Z,43.35
2022-12-18T01:54:05.946Z,47.00
2022-12-18T01:56:56.903Z,48.60
2022-12-18T01:59:53.164Z,53.05
2022-12-18T02:02:43.684Z,47.25
2022-12-18T02:06:13.400Z,51.75
2022-12-18T02:09:18.232Z,45.13
2022-12-18T02:12:19.415Z,46.17
2022-12-18T02:16:01.543Z,52.33
2022-12-18T02:19:02.259Z,53.55
2022-12-18T02:22:36.067Z,58.55
2022-12-18T02:26:00.527Z,49.47
2022-12-18T02:29:12.049Z,54.13
2022-12-18T02:32:01.891Z,46.60
2022-12-18T02:34:52.207Z,56.88
2022-12-18T02:37:44.361Z,48.08
2022-12-18T02:40:34.767Z,48.17
2022-12-18T02:43:29.396Z,42.60
2022-12-18T02:46:43.561Z,52.03
2022-12-18T02:49:40.396Z,49.25
2022-12-18T02:52:56.602Z,51.85
2022-12-18T02:56:12.540Z,40.78
2022-12-18T02:59:15.404Z,44.22
2022-12-18T03:02:24.898Z,52.53
2022-12-18T03:05:23.834Z,47.70
2022-12-18T03:08:24.166Z,48.25
2022-12-18T03:11:15.007Z,45.53
2022-12-18T03:14:04.507Z,49.83
2022-12-18T03:16:56.293Z,50.80
2022-12-18T03:19:49.677Z,49.42
2022-12-18T03:25:29.289Z,48.58
2022-12-18T03:28:23.824Z,48.47
2022-12-18T03:31:16.020Z,40.83
2022-12-18T03:34:11.117Z,49.92
2022-12-18T03:36:59.254Z,52.33
2022-12-18T03:39:47.871Z,49.50
2022-12-18T03:42:59.002Z,49.97
2022-12-18T03:46:07.065Z,47.80
2022-12-18T03:49:07.582Z,50.10
2022-12-18T03:52:08.477Z,48.83
2022-12-18T03:55:01.236Z,41.63
2022-12-18T03:57:53.952Z,49.88
2022-12-18T04:00:43.501Z,48.33
2022-12-18T04:03:37.326Z,48.00
2022-12-18T04:06:32.492Z,52.88
2022-12-18T04:09:27.441Z,48.75
2022-12-18T04:12:20.139Z,51.40
2022-12-18T04:15:09.641Z,47.05
2022-12-18T04:17:59.965Z,50.97
2022-12-18T04:20:48.388Z,54.85
2022-12-18T04:23:37.581Z,57.05
2022-12-18T04:26:25.806Z,46.83
2022-12-18T04:29:14.020Z,47.20
2022-12-18T04:32:02.554Z,51.15
2022-12-18T04:34:51.003Z,49.63
2022-12-18T04:37:40.764Z,48.22
2022-12-18T04:40:28.902Z,47.95
2022-12-18T04:43:17.615Z,48.00
2022-12-18T04:46:08.053Z,46.92
2022-12-18T04:48:56.274Z,51.50
2022-12-18T04:51:44.596Z,52.53
2022-12-18T04:54:35.050Z,46.70
2022-12-18T04:57:24.788Z,45.05
2022-12-18T05:00:13.731Z,44.30
2022-12-18T05:03:03.574Z,42.33
2022-12-18T05:05:52.986Z,48.30
2022-12-18T05:08:41.323Z,45.05
2022-12-18T05:11:29.409Z,48.78
2022-12-18T05:14:20.061Z,44.85
2022-12-18T05:17:08.203Z,45.92
2022-12-18T05:19:56.119Z,49.65
2022-12-18T05:22:47.105Z,51.83
2022-12-18T05:25:37.805Z,52.30
2022-12-18T05:28:28.662Z,47.08
2022-12-18T05:31:19.218Z,44.47
2022-12-18T05:34:07.196Z,49.15
2022-12-18T05:36:55.294Z,47.03
2022-12-18T05:39:44.693Z,51.72
2022-12-18T05:42:32.786Z,47.08
2022-12-18T05:45:21.410Z,52.28
2022-12-18T05:48:11.751Z,48.78
2022-12-18T05:51:08.223Z,51.08
2022-12-18T05:53:56.862Z,50.10
2022-12-18T05:56:48.642Z,49.22
2022-12-18T05:59:37.412Z,49.60
2022-12-18T06:02:25.600Z,52.47
2022-12-18T06:05:13.862Z,51.50
2022-12-18T06:08:02.200Z,49.05
2022-12-18T06:10:53.858Z,49.42
2022-12-18T06:13:42.452Z,53.63
2022-12-18T06:16:33.794Z,45.25
2022-12-18T06:19:21.838Z,52.63
2022-12-18T06:22:10.112Z,46.63
2022-12-18T06:24:58.751Z,54.55
2022-12-18T06:27:49.568Z,51.05
2022-12-18T06:30:37.921Z,49.10
2022-12-18T06:33:29.265Z,51.95
2022-12-18T06:36:17.722Z,49.55
2022-12-18T06:39:08.546Z,46.63
2022-12-18T06:41:57.588Z,52.25
2022-12-18T06:44:45.826Z,54.47
2022-12-18T06:47:34.934Z,50.15
2022-12-18T06:50:23.316Z,53.17
2022-12-18T06:53:11.734Z,51.80
2022-12-18T06:56:10.654Z,53.08
2022-12-18T06:58:59.227Z,55.17
2022-12-18T07:01:53.286Z,51.20
2022-12-18T07:04:41.511Z,48.83
2022-12-18T07:07:29.783Z,51.67
2022-12-18T07:10:17.952Z,54.00
2022-12-18T07:13:05.892Z,53.10
2022-12-18T07:15:53.844Z,53.58
2022-12-18T07:18:41.990Z,48.70
2022-12-18T07:21:33.083Z,49.15
2022-12-18T07:24:27.686Z,54.92
2022-12-18T07:27:15.959Z,49.92
2022-12-18T07:30:12.194Z,46.35
2022-12-18T07:33:00.126Z,49.95
2022-12-18T07:35:48.300Z,51.45
2022-12-18T07:38:36.981Z,51.05
2022-12-18T07:41:25.105Z,54.45
2022-12-18T07:44:14.386Z,52.42
2022-12-18T07:47:03.952Z,53.33
2022-12-18T07:50:08.536Z,54.97
2022-12-18T07:52:56.476Z,49.28
2022-12-18T07:56:24.987Z,50.80
2022-12-18T07:58:56.064Z,46.35
2022-12-18T08:01:44.194Z,46.85
2022-12-18T08:04:32.874Z,50.28
2022-12-18T08:07:29.666Z,52.47
2022-12-18T08:10:20.842Z,55.25
2022-12-18T08:13:09.100Z,59.40
2022-12-18T08:16:03.941Z,52.03
2022-12-18T08:18:57.076Z,51.85
2022-12-18T08:21:55.452Z,53.83
2022-12-18T08:24:43.498Z,46.22
2022-12-18T08:27:36.107Z,54.05
2022-12-18T08:30:24.128Z,53.33
2022-12-18T08:33:12.389Z,48.58
2022-12-18T08:36:02.135Z,56.25
2022-12-18T08:38:53.037Z,58.92
2022-12-18T08:42:09.875Z,56.17
2022-12-18T08:45:04.215Z,59.72
2022-12-18T08:47:52.522Z,61.83
2022-12-18T08:50:59.236Z,55.25
2022-12-18T08:53:48.474Z,60.78
2022-12-18T08:56:41.965Z,66.78
2022-12-18T09:02:46.807Z,62.28
2022-12-18T09:05:35.111Z,56.78
2022-12-18T09:08:27.868Z,53.75
2022-12-18T09:11:22.858Z,58.13
2022-12-18T09:14:12.359Z,58.25
2022-12-18T09:17:03.219Z,59.45
2022-12-18T09:19:51.788Z,60.75
2022-12-18T09:22:39.810Z,61.70
2022-12-18T09:25:33.198Z,55.25
2022-12-18T09:28:24.918Z,55.53
2022-12-18T09:31:14.771Z,53.47
2022-12-18T09:34:03.396Z,52.15
2022-12-18T09:36:57.455Z,54.70
2022-12-18T09:39:45.529Z,51.22
2022-12-18T09:42:34.206Z,54.92
2022-12-18T09:45:23.098Z,62.90
2022-12-18T09:48:44.121Z,58.97
2022-12-18T09:51:56.887Z,56.13
2022-12-18T09:54:55.431Z,58.58
2022-12-18T09:57:54.108Z,60.08
2022-12-18T10:00:43.915Z,57.47
2022-12-18T10:03:33.495Z,58.95
2022-12-18T10:06:36.979Z,60.08
2022-12-18T10:10:31.538Z,62.00
2022-12-18T10:13:36.098Z,56.67
2022-12-18T10:16:42.373Z,56.72
2022-12-18T10:19:50.532Z,56.83
2022-12-18T10:23:03.937Z,58.17
2022-12-18T10:26:07.983Z,60.28
2022-12-18T10:29:05.131Z,62.72
2022-12-18T10:31:55.818Z,71.55
2022-12-18T10:34:54.056Z,71.95
2022-12-18T10:38:29.020Z,67.10
2022-12-18T10:41:24.262Z,73.35
2022-12-18T10:44:21.114Z,71.55
2022-12-18T10:47:16.263Z,76.25
2022-12-18T10:50:05.348Z,71.32
2022-12-18T10:53:00.853Z,94.32
2022-12-18T10:55:54.613Z,74.57
2022-12-18T10:58:43.564Z,81.55
2022-12-18T11:01:56.177Z,83.30
2022-12-18T11:04:53.051Z,81.68
2022-12-18T11:07:55.436Z,82.75
2022-12-18T11:10:48.663Z,87.70
2022-12-18T11:13:39.329Z,91.85
2022-12-18T11:16:29.560Z,78.65
2022-12-18T11:19:44.872Z,87.35
2022-12-18T11:22:36.733Z,71.70
2022-12-18T11:25:34.589Z,73.93
2022-12-18T11:28:31.532Z,84.70
2022-12-18T11:31:32.883Z,79.40
2022-12-18T11:34:34.658Z,90.45
2022-12-18T11:37:24.965Z,89.95
2022-12-18T11:40:40.731Z,85.03
2022-12-18T11:44:01.663Z,82.35
2022-12-18T11:46:58.079Z,80.45
2022-12-18T11:49:49.787Z,84.28
2022-12-18T11:52:44.189Z,87.60
2022-12-18T11:56:01.449Z,85.78
2022-12-18T11:59:02.478Z,84.65
2022-12-18T12:02:20.118Z,87.40
2022-12-18T12:05:36.552Z,80.47
2022-12-18T12:08:40.087Z,90.78
2022-12-18T12:12:22.009Z,92.93
2022-12-18T12:15:42.832Z,89.63
2022-12-18T12:19:14.873Z,94.25
2022-12-18T12:22:13.872Z,98.95
2022-12-18T12:25:34.644Z,89.82
2022-12-18T12:28:53.501Z,96.30
2022-12-18T12:32:25.100Z,100.95
2022-12-18T12:39:01.469Z,91.82
2022-12-18T12:42:08.189Z,87.40
2022-12-18T12:45:00.214Z,90.38
2022-12-18T12:47:51.157Z,87.82
2022-12-18T12:50:43.667Z,101.75
2022-12-18T12:53:37.705Z,92.88
2022-12-18T12:56:52.181Z,87.25
2022-12-18T12:59:48.939Z,94.72
2022-12-18T13:03:25.242Z,94.75
2022-12-18T13:06:29.323Z,97.30
2022-12-18T13:09:18.528Z,91.55
2022-12-18T13:12:39.473Z,99.60
2022-12-18T13:15:52.402Z,96.15
2022-12-18T13:18:58.649Z,85.47
2022-12-18T13:22:00.091Z,94.95
2022-12-18T13:24:51.591Z,94.40
2022-12-18T13:27:49.009Z,96.78
2022-12-18T13:30:40.083Z,91.28
2022-12-18T13:33:32.373Z,92.50
2022-12-18T13:36:35.253Z,96.32
2022-12-18T13:42:59.704Z,92.18
2022-12-18T13:46:57.190Z,84.20
2022-12-18T13:49:46.133Z,97.50
2022-12-18T13:52:42.963Z,96.53
2022-12-18T13:55:31.241Z,97.20
2022-12-18T13:58:24.811Z,89.07
2022-12-18T14:01:28.536Z,90.35
2022-12-18T14:04:34.887Z,88.75
2022-12-18T14:07:45.170Z,91.03
2022-12-18T14:10:49.361Z,83.35
2022-12-18T14:13:42.703Z,84.68
2022-12-18T14:16:37.647Z,96.80
2022-12-18T14:19:28.027Z,78.95
2022-12-18T14:22:26.467Z,88.45
2022-12-18T14:25:14.418Z,89.88
2022-12-18T14:28:11.568Z,93.18
2022-12-18T14:30:59.968Z,86.75
2022-12-18T14:33:51.761Z,90.57
2022-12-18T14:36:45.477Z,97.55
2022-12-18T14:42:25.661Z,91.68
2022-12-18T14:45:43.413Z,95.00
2022-12-18T14:48:48.917Z,92.28
2022-12-18T14:51:38.427Z,84.82
2022-12-18T14:54:31.217Z,91.13
2022-12-18T14:57:28.020Z,89.70
2022-12-18T15:00:36.220Z,87.95
2022-12-18T15:03:25.433Z,85.43
2022-12-18T15:06:45.283Z,91.60
2022-12-18T15:09:37.441Z,84.47
2022-12-18T15:12:38.776Z,86.65
2022-12-18T15:15:39.295Z,91.20
2022-12-18T15:18:53.700Z,84.10
2022-12-18T15:21:47.448Z,100.18
2022-12-18T15:24:42.330Z,98.90
2022-12-18T15:27:37.615Z,103.47
2022-12-18T15:30:29.849Z,109.35
2022-12-18T15:33:32.534Z,101.30
2022-12-18T15:36:30.232Z,103.43
2022-12-18T15:39:19.296Z,91.88
2022-12-18T15:42:32.269Z,94.75
2022-12-18T15:45:22.416Z,84.43
2022-12-18T15:48:24.255Z,98.53
2022-12-18T15:51:26.049Z,98.63
2022-12-18T15:54:42.096Z,98.22
2022-12-18T15:57:36.183Z,104.28
2022-12-18T16:00:26.308Z,103.82
2022-12-18T16:03:27.450Z,93.45
2022-12-18T16:06:18.562Z,91.95
2022-12-18T16:09:15.683Z,99.07
2022-12-18T16:12:28.870Z,97.28
2022-12-18T16:15:28.893Z,105.93
2022-12-18T16:18:34.946Z,92.00
2022-12-18T16:21:34.105Z,99.40
2022-12-18T16:24:37.211Z,95.53
2022-12-18T16:34:38.256Z,94.68
2022-12-18T16:44:43.389Z,101.00
2022-12-18T16:47:43.431Z,100.57
2022-12-18T16:50:49.296Z,99.47
2022-12-18T16:53:48.241Z,100.93
2022-12-18T17:00:47.462Z,94.53
2022-12-18T17:04:09.549Z,86.03
2022-12-18T17:10:39.072Z,96.53
2022-12-18T17:14:08.088Z,94.25
2022-12-18T17:17:37.461Z,93.53
2022-12-18T17:31:36.259Z,94.95
2022-12-18T18:03:00.171Z,95.97
2022-12-18T18:06:30.434Z,91.57
2022-12-18T18:19:55.415Z,108.57
2022-12-18T18:23:10.385Z,100.60
2022-12-18T18:34:18.890Z,91.53
2022-12-18T18:37:44.429Z,105.50
2022-12-18T18:41:13.216Z,104.35
2022-12-18T18:53:25.540Z,107.10
2022-12-18T19:00:55.088Z,100.80
2022-12-18T19:03:52.941Z,102.70
2022-12-18T19:06:47.271Z,103.05
2022-12-18T19:09:52.005Z,166.23
2022-12-18T19:13:09.379Z,128.23
2022-12-18T19:25:13.330Z,113.45
2022-12-18T19:32:04.543Z,100.80
2022-12-18T19:35:52.146Z,104.07
2022-12-18T19:38:46.687Z,94.45
2022-12-18T19:41:45.491Z,92.25
2022-12-18T19:48:27.941Z,91.50
2022-12-18T19:52:01.297Z,77.65
2022-12-18T19:55:02.160Z,82.28
2022-12-18T19:58:45.151Z,82.32
2022-12-18T20:09:51.606Z,75.13
2022-12-18T20:17:10.959Z,74.80
2022-12-18T20:20:40.140Z,82.43
2022-12-18T20:27:30.678Z,89.28
2022-12-18T20:31:03.442Z,81.03
2022-12-18T20:34:37.703Z,83.00
2022-12-18T20:43:22.418Z,83.10
2022-12-18T20:51:26.667Z,76.78
2022-12-18T21:07:07.019Z,86.10
2022-12-18T21:18:13.655Z,83.47
2022-12-18T21:18:51.298Z,85.18
2022-12-18T21:22:47.205Z,73.00
2022-12-18T21:26:21.127Z,81.55
2022-12-18T21:29:39.302Z,80.72
2022-12-18T21:37:12.260Z,81.32
2022-12-18T21:40:17.060Z,83.85
2022-12-18T21:44:06.264Z,76.50
2022-12-18T21:47:22.070Z,80.43
2022-12-18T21:50:54.217Z,83.85
2022-12-18T21:57:31.961Z,79.78
2022-12-18T22:00:52.666Z,80.95
2022-12-18T22:04:29.025Z,79.15
2022-12-18T22:07:29.806Z,87.72
2022-12-18T22:18:04.848Z,86.72
2022-12-18T22:24:00.988Z,84.13
2022-12-18T22:27:29.792Z,77.15
2022-12-18T22:30:41.115Z,81.60
2022-12-18T22:37:49.268Z,76.25
2022-12-18T22:41:35.863Z,80.80
2022-12-18T22:44:53.253Z,82.57
2022-12-18T22:48:00.912Z,75.53
2022-12-18T22:58:05.615Z,83.05
2022-12-18T23:01:21.675Z,70.05
2022-12-18T23:08:19.605Z,79.18
2022-12-18T23:11:19.411Z,74.30
2022-12-18T23:14:37.443Z,77.75
2022-12-18T23:18:28.052Z,79.78
2022-12-18T23:21:47.575Z,69.85
2022-12-18T23:28:17.597Z,78.32
2022-12-18T23:32:57.137Z,82.13
2022-12-18T23:35:27.839Z,81.22
2022-12-18T23:38:43.842Z,74.22
2022-12-18T23:41:58.223Z,74.80
2022-12-18T23:48:52.253Z,70.45
2022-12-18T23:51:54.372Z,74.97
2022-12-18T23:58:26.206Z,84.57
